Kezdőlap
METAR-TAF:

METAR-TAF

Repülőterek :

Ivalói repülőtér

Ivalo, Finnország

földrajzi szélesség: 68-37N, földrajzi hosszúság: 027-25E, magasság: 147 m

Jelenlegi meteorológiai megfigyelések

A jelentés 32 perccel ezelõtt készült, 04:50 UTC
Különbözõ irányokból fújó szél 2 kt
Hőmérséklet -24°C
Páratartalom 76%
Légköri nyomás 1005 hPa
Látótávolság 10 km, vagy több
felhőtlen 1500 m magasságban, és nincs gomolyfelhõ

METAR: EFIV 200450Z AUTO VRB02KT CAVOK M24/M27 Q1005

Idő: 07:22 (05:22 UTC)

Előrejelzés

A jelentés 2 órával és 50 perccel ezelõtt készült, 02:32 UTC
Az előrejelzés 20-én 03 óra UTC és 20-én 12 óra UTC között érvényes
Nyugati szél 4 kt
Látótávolság 10 km, vagy több
felhőtlen 1500 m magasságban, és nincs gomolyfelhõ

TAF: EFIV 200232Z 2003/2012 27004KT CAVOK

Meteorológiai megfigyelések és előrejelzések több, mint 4000 repülőtéren (METAR és TAF jelentéseket).

A térképen piros és sárga pontok jelzik az elérhető meteorológiai állomásokat.

Mozgassa az egeret a pont fölött, hogy megjelenjen az állomás neve.

Azután kattintson az időjárási megfigyelések és előrejelzések megtekintéséhez.

A térkép megváltoztatása: kattintson a fekete keresztel jelölt zöld gombra ráközelítéshez, a vonallal jelölt zöld gombra távolításhoz, vagy a zöld nyilakra a szomszédos térképek eléréséhez.


METAR-TAF: